createdAt,value
2023-03-05T07:33:34.148Z,1013.07
2023-03-05T07:34:36.224Z,1013.10
2023-03-05T07:35:34.776Z,1013.09
2023-03-05T07:36:35.335Z,1013.11
2023-03-05T07:37:35.361Z,1013.09
2023-03-05T07:38:35.630Z,1013.03
2023-03-05T07:39:35.864Z,1013.00
2023-03-05T07:40:36.065Z,1013.04
2023-03-05T07:41:36.348Z,1013.03
2023-03-05T07:42:36.586Z,1013.05
2023-03-05T07:43:36.760Z,1013.05
2023-03-05T07:44:37.195Z,1013.05
2023-03-05T07:45:37.415Z,1013.01
2023-03-05T07:46:37.769Z,1013.00
2023-03-05T07:47:38.105Z,1013.01
2023-03-05T07:48:38.317Z,1012.95
2023-03-05T07:49:38.674Z,1013.01
2023-03-05T07:50:38.931Z,1012.92
2023-03-05T07:51:39.188Z,1012.90
2023-03-05T07:52:39.409Z,1012.96
2023-03-05T07:53:39.727Z,1012.93
2023-03-05T07:54:40.024Z,1012.94
2023-03-05T07:55:40.219Z,1012.95
2023-03-05T07:56:40.439Z,1012.96
2023-03-05T07:57:40.705Z,1012.96
2023-03-05T07:58:41.055Z,1012.97
2023-03-05T07:59:41.385Z,1012.97
2023-03-05T08:00:41.580Z,1012.91
2023-03-05T08:01:41.858Z,1012.98
2023-03-05T08:02:42.058Z,1013.01
2023-03-05T08:03:42.343Z,1012.94
2023-03-05T08:04:42.566Z,1012.94
2023-03-05T08:05:42.897Z,1012.94
2023-03-05T08:06:43.221Z,1012.90
2023-03-05T08:07:43.471Z,1012.85
2023-03-05T08:08:43.839Z,1012.81
2023-03-05T08:09:44.145Z,1012.92
2023-03-05T08:10:44.324Z,1012.89
2023-03-05T08:11:44.550Z,1012.86
2023-03-05T08:12:44.779Z,1012.87
2023-03-05T08:13:45.044Z,1012.86
2023-03-05T08:14:45.428Z,1012.81
2023-03-05T08:15:45.711Z,1012.84
2023-03-05T08:16:48.261Z,1012.80
2023-03-05T08:17:46.206Z,1012.80
2023-03-05T08:18:46.558Z,1012.83
2023-03-05T08:19:46.866Z,1012.82
2023-03-05T08:20:47.344Z,1012.82
2023-03-05T08:21:47.456Z,1012.76
2023-03-05T08:22:47.717Z,1012.79
2023-03-05T08:23:47.931Z,1012.79
2023-03-05T08:24:48.240Z,1012.75
2023-03-05T08:25:48.496Z,1012.77
2023-03-05T08:26:48.808Z,1012.75
2023-03-05T08:27:49.065Z,1012.73
2023-03-05T08:28:49.437Z,1012.79
2023-03-05T08:29:49.669Z,1012.75
2023-03-05T08:30:49.876Z,1012.72
2023-03-05T08:31:50.118Z,1012.73
2023-03-05T08:32:50.445Z,1012.69
2023-03-05T08:33:50.673Z,1012.72
2023-03-05T08:34:50.942Z,1012.74
2023-03-05T08:35:51.196Z,1012.71
2023-03-05T08:36:51.398Z,1012.71
2023-03-05T08:37:51.723Z,1012.64
2023-03-05T08:38:51.991Z,1012.66
2023-03-05T08:39:52.321Z,1012.68
2023-03-05T08:40:52.541Z,1012.65
2023-03-05T08:41:52.876Z,1012.63
2023-03-05T08:42:53.197Z,1012.63
2023-03-05T08:43:53.491Z,1012.59
2023-03-05T08:44:53.725Z,1012.62
2023-03-05T08:45:53.929Z,1012.62
2023-03-05T08:46:54.264Z,1012.60
2023-03-05T08:47:54.595Z,1012.59
2023-03-05T08:48:54.931Z,1012.59
2023-03-05T08:49:55.286Z,1012.58
2023-03-05T08:50:55.471Z,1012.61
2023-03-05T08:51:55.724Z,1012.52
2023-03-05T08:52:55.964Z,1012.53
2023-03-05T08:53:56.199Z,1012.55
2023-03-05T08:54:56.560Z,1012.57
2023-03-05T08:55:56.739Z,1012.57
2023-03-05T08:56:56.989Z,1012.52
2023-03-05T08:57:57.202Z,1012.56
2023-03-05T08:58:57.461Z,1012.55
2023-03-05T08:59:57.709Z,1012.55
2023-03-05T09:00:57.956Z,1012.54
2023-03-05T09:01:58.292Z,1012.53
2023-03-05T09:02:58.585Z,1012.56
2023-03-05T09:03:58.808Z,1012.47
2023-03-05T09:04:59.158Z,1012.53
2023-03-05T09:05:59.385Z,1012.51
2023-03-05T09:06:59.682Z,1012.50
2023-03-05T09:07:59.930Z,1012.46
2023-03-05T09:09:00.259Z,1012.45
2023-03-05T09:10:00.630Z,1012.47
2023-03-05T09:11:00.811Z,1012.41
2023-03-05T09:12:01.099Z,1012.41
2023-03-05T09:13:01.356Z,1012.39
2023-03-05T09:14:01.626Z,1012.40
2023-03-05T09:15:01.822Z,1012.42
2023-03-05T09:16:02.185Z,1012.42
2023-03-05T09:17:02.409Z,1012.40
2023-03-05T09:18:02.751Z,1012.40
2023-03-05T09:19:02.966Z,1012.37
2023-03-05T09:20:03.333Z,1012.38
2023-03-05T09:21:03.532Z,1012.39
2023-03-05T09:22:03.867Z,1012.40
2023-03-05T09:23:04.162Z,1012.34
2023-03-05T09:24:04.438Z,1012.34
2023-03-05T09:25:04.797Z,1012.32
2023-03-05T09:26:05.073Z,1012.32
2023-03-05T09:27:05.306Z,1012.31
2023-03-05T09:28:05.629Z,1012.36
2023-03-05T09:29:05.852Z,1012.34
2023-03-05T09:30:06.159Z,1012.27
2023-03-05T09:31:06.356Z,1012.26
2023-03-05T09:32:06.669Z,1012.24
2023-03-05T09:33:06.911Z,1012.27
2023-03-05T09:34:07.196Z,1012.24
2023-03-05T09:35:07.420Z,1012.22
2023-03-05T09:36:07.638Z,1012.23
2023-03-05T09:37:07.966Z,1012.20
2023-03-05T09:38:08.308Z,1012.22
2023-03-05T09:39:08.609Z,1012.20
2023-03-05T09:40:08.949Z,1012.17
2023-03-05T09:41:09.132Z,1012.13
2023-03-05T09:42:10.361Z,1012.13
2023-03-05T09:43:09.751Z,1012.10
2023-03-05T09:44:10.018Z,1012.11
2023-03-05T09:45:10.357Z,1012.10
2023-03-05T09:46:10.610Z,1012.08
2023-03-05T09:47:10.841Z,1012.11
2023-03-05T09:48:11.093Z,1012.09
2023-03-05T09:49:11.315Z,1012.08
2023-03-05T09:50:11.571Z,1012.10
2023-03-05T09:51:11.902Z,1012.03
2023-03-05T09:52:12.278Z,1012.03
2023-03-05T09:53:12.489Z,1012.00
2023-03-05T09:54:12.788Z,1012.02
2023-03-05T09:55:13.052Z,1012.01
2023-03-05T09:56:13.360Z,1011.97
2023-03-05T09:57:13.601Z,1011.96
2023-03-05T09:58:13.847Z,1011.93
2023-03-05T09:59:14.086Z,1011.86
2023-03-05T10:00:14.322Z,1011.89
2023-03-05T10:01:14.595Z,1011.88
2023-03-05T10:02:14.830Z,1011.85
2023-03-05T10:03:15.118Z,1011.86
2023-03-05T10:04:15.336Z,1011.85
2023-03-05T10:05:15.566Z,1011.81
2023-03-05T10:06:15.753Z,1011.82
2023-03-05T10:07:15.978Z,1011.82
2023-03-05T10:08:16.229Z,1011.79
2023-03-05T10:09:16.474Z,1011.77
2023-03-05T10:10:17.063Z,1011.76
2023-03-05T10:11:17.035Z,1011.79
2023-03-05T10:12:17.298Z,1011.75
2023-03-05T10:13:17.627Z,1011.70
2023-03-05T10:14:17.942Z,1011.68
2023-03-05T10:15:18.251Z,1011.67
2023-03-05T10:16:18.517Z,1011.69
2023-03-05T10:17:18.715Z,1011.70
2023-03-05T10:18:19.023Z,1011.66
2023-03-05T10:19:19.272Z,1011.70
2023-03-05T10:20:19.703Z,1011.66
2023-03-05T10:21:19.841Z,1011.67
2023-03-05T10:22:20.121Z,1011.62
2023-03-05T10:23:20.335Z,1011.58
2023-03-05T10:24:20.594Z,1011.68
2023-03-05T10:25:20.777Z,1011.68
2023-03-05T10:26:21.001Z,1011.62
2023-03-05T10:27:21.421Z,1011.56
2023-03-05T10:28:21.647Z,1011.56
2023-03-05T10:29:21.849Z,1011.63
2023-03-05T10:30:22.135Z,1011.56
2023-03-05T10:31:22.432Z,1011.57
2023-03-05T10:32:22.757Z,1011.57
2023-03-05T10:33:23.089Z,1011.52
2023-03-05T10:34:23.412Z,1011.49
2023-03-05T10:35:23.752Z,1011.51
2023-03-05T10:36:24.294Z,1011.51
2023-03-05T10:37:24.348Z,1011.48
2023-03-05T10:38:24.688Z,1011.46
2023-03-05T10:39:24.912Z,1011.40
2023-03-05T10:40:25.183Z,1011.39
2023-03-05T10:41:25.571Z,1011.43
2023-03-05T10:42:25.804Z,1011.45
2023-03-05T10:43:26.014Z,1011.45
2023-03-05T10:44:26.307Z,1011.43
2023-03-05T10:45:26.585Z,1011.40
2023-03-05T10:46:26.793Z,1011.45
2023-03-05T10:47:27.113Z,1011.42
2023-03-05T10:48:27.379Z,1011.41
2023-03-05T10:49:27.704Z,1011.41
2023-03-05T10:50:28.029Z,1011.39
2023-03-05T10:51:28.327Z,1011.40
2023-03-05T10:52:28.652Z,1011.40
2023-03-05T10:53:28.969Z,1011.40
2023-03-05T10:54:29.222Z,1011.33
2023-03-05T10:55:29.538Z,1011.32
2023-03-05T10:56:29.755Z,1011.36
2023-03-05T10:57:30.000Z,1011.32
2023-03-05T10:58:30.266Z,1011.30
2023-03-05T10:59:34.424Z,1011.29
2023-03-05T11:00:30.862Z,1011.28
2023-03-05T11:01:31.214Z,1011.31
2023-03-05T11:02:31.573Z,1011.22
2023-03-05T11:03:31.758Z,1011.26
2023-03-05T11:04:32.115Z,1011.26
2023-03-05T11:05:32.290Z,1011.28
2023-03-05T11:06:32.521Z,1011.22
2023-03-05T11:07:32.837Z,1011.23
2023-03-05T11:08:33.192Z,1011.22
2023-03-05T11:09:33.470Z,1011.24
2023-03-05T11:10:33.822Z,1011.21
2023-03-05T11:11:34.152Z,1011.21
2023-03-05T11:12:34.491Z,1011.22
2023-03-05T11:13:34.830Z,1011.18
2023-03-05T11:14:35.114Z,1011.20
2023-03-05T11:15:35.322Z,1011.19
2023-03-05T11:16:35.614Z,1011.15
2023-03-05T11:17:35.792Z,1011.17
2023-03-05T11:18:36.050Z,1011.20
2023-03-05T11:19:36.375Z,1011.17
2023-03-05T11:20:36.713Z,1011.17
2023-03-05T11:21:36.968Z,1011.19
2023-03-05T11:22:37.167Z,1011.20
2023-03-05T11:23:37.455Z,1011.16
2023-03-05T11:24:37.830Z,1011.16
2023-03-05T11:25:38.040Z,1011.14
2023-03-05T11:26:38.394Z,1011.16
2023-03-05T11:27:38.700Z,1011.14
2023-03-05T11:28:39.051Z,1011.13
2023-03-05T11:29:39.269Z,1011.15
2023-03-05T11:30:39.608Z,1011.14
2023-03-05T11:31:39.826Z,1011.12
2023-03-05T11:32:40.092Z,1011.13
2023-03-05T11:33:40.327Z,1011.10
2023-03-05T11:34:40.628Z,1011.12
2023-03-05T11:35:40.909Z,1011.09
2023-03-05T11:36:41.154Z,1011.04
2023-03-05T11:37:41.391Z,1011.11
2023-03-05T11:38:41.587Z,1011.14
2023-03-05T11:39:41.939Z,1011.11
2023-03-05T11:40:42.163Z,1011.10
2023-03-05T11:41:42.501Z,1011.12
2023-03-05T11:42:42.803Z,1011.07
2023-03-05T11:43:43.075Z,1011.04
2023-03-05T11:44:43.375Z,1011.08
2023-03-05T11:45:43.619Z,1011.06
2023-03-05T11:46:44.010Z,1011.07
2023-03-05T11:47:44.214Z,1011.04
2023-03-05T11:48:44.536Z,1011.03
2023-03-05T11:49:44.887Z,1011.02
2023-03-05T11:50:45.103Z,1011.00
2023-03-05T11:51:45.460Z,1011.00
2023-03-05T11:52:45.679Z,1010.98
2023-03-05T11:53:45.916Z,1010.98
2023-03-05T11:54:46.187Z,1010.97
2023-03-05T11:55:46.550Z,1010.88
2023-03-05T11:56:50.970Z,1010.85
2023-03-05T11:57:47.129Z,1010.85
2023-03-05T11:58:47.457Z,1010.86
2023-03-05T11:59:47.815Z,1010.83
2023-03-05T12:00:48.121Z,1010.76
2023-03-05T12:01:48.486Z,1010.82
2023-03-05T12:02:48.849Z,1010.78
2023-03-05T12:03:49.103Z,1010.77
2023-03-05T12:04:49.312Z,1010.75
2023-03-05T12:05:49.675Z,1010.74
2023-03-05T12:06:49.985Z,1010.69
2023-03-05T12:07:50.209Z,1010.68
2023-03-05T12:08:50.541Z,1010.64
2023-03-05T12:09:50.907Z,1010.67
2023-03-05T12:10:51.206Z,1010.66
2023-03-05T12:11:51.568Z,1010.62
2023-03-05T12:12:51.857Z,1010.64
2023-03-05T12:13:52.078Z,1010.61
2023-03-05T12:14:52.323Z,1010.59
2023-03-05T12:15:52.718Z,1010.56
2023-03-05T12:16:52.982Z,1010.54
2023-03-05T12:17:53.153Z,1010.56
2023-03-05T12:18:53.472Z,1010.55
2023-03-05T12:19:53.821Z,1010.52
2023-03-05T12:20:54.180Z,1010.55
2023-03-05T12:21:54.525Z,1010.47
2023-03-05T12:22:54.811Z,1010.50
2023-03-05T12:23:55.069Z,1010.46
2023-03-05T12:24:55.347Z,1010.43
2023-03-05T12:25:55.689Z,1010.43
2023-03-05T12:26:56.110Z,1010.44
2023-03-05T12:27:56.370Z,1010.36
2023-03-05T12:28:56.692Z,1010.32
2023-03-05T12:29:57.009Z,1010.28
2023-03-05T12:30:57.315Z,1010.28
2023-03-05T12:31:57.674Z,1010.26
2023-03-05T12:32:58.013Z,1010.21
2023-03-05T12:33:58.357Z,1010.16
2023-03-05T12:34:58.644Z,1010.22
2023-03-05T12:35:59.024Z,1010.18
2023-03-05T12:36:59.365Z,1010.18
2023-03-05T12:37:59.591Z,1010.17
2023-03-05T12:38:59.928Z,1010.15
2023-03-05T12:40:00.122Z,1010.15
2023-03-05T12:41:00.411Z,1010.12
2023-03-05T12:42:00.673Z,1010.14
2023-03-05T12:43:00.863Z,1010.13
2023-03-05T12:44:01.223Z,1010.07
2023-03-05T12:45:01.432Z,1010.04
2023-03-05T12:46:01.755Z,1010.03
2023-03-05T12:47:02.146Z,1009.98
2023-03-05T12:48:02.354Z,1009.97
2023-03-05T12:49:02.694Z,1009.92
2023-03-05T12:50:02.929Z,1009.91
2023-03-05T12:51:03.261Z,1009.90
2023-03-05T12:52:03.592Z,1009.88
2023-03-05T12:53:03.897Z,1009.83
2023-03-05T12:54:04.104Z,1009.84
2023-03-05T12:55:04.482Z,1009.85
2023-03-05T12:56:04.666Z,1009.79
2023-03-05T12:57:04.935Z,1009.80
2023-03-05T12:58:05.256Z,1009.77
2023-03-05T12:59:05.500Z,1009.76
2023-03-05T13:00:05.732Z,1009.70
2023-03-05T13:01:06.060Z,1009.68
2023-03-05T13:02:06.334Z,1009.74
2023-03-05T13:03:06.592Z,1009.71
2023-03-05T13:04:06.786Z,1009.68
2023-03-05T13:05:07.014Z,1009.67
2023-03-05T13:06:07.331Z,1009.69
2023-03-05T13:07:07.592Z,1009.64
2023-03-05T13:08:07.790Z,1009.62
2023-03-05T13:09:08.087Z,1009.63
2023-03-05T13:10:08.291Z,1009.64
2023-03-05T13:11:08.527Z,1009.60
2023-03-05T13:12:08.938Z,1009.59
2023-03-05T13:13:09.161Z,1009.60
2023-03-05T13:14:09.545Z,1009.55
2023-03-05T13:15:09.734Z,1009.56
2023-03-05T13:16:10.137Z,1009.53
2023-03-05T13:17:10.357Z,1009.54
2023-03-05T13:18:10.565Z,1009.51
2023-03-05T13:19:10.894Z,1009.54
2023-03-05T13:20:11.146Z,1009.51
2023-03-05T13:21:11.383Z,1009.53
2023-03-05T13:22:11.755Z,1009.55
2023-03-05T13:23:11.951Z,1009.53
2023-03-05T13:24:13.784Z,1009.52
2023-03-05T13:25:12.570Z,1009.51
2023-03-05T13:26:12.909Z,1009.44
2023-03-05T13:27:13.117Z,1009.44
2023-03-05T13:28:13.473Z,1009.45
2023-03-05T13:29:13.691Z,1009.43
2023-03-05T13:30:13.942Z,1009.44
2023-03-05T13:31:14.207Z,1009.45
2023-03-05T13:32:14.459Z,1009.40
2023-03-05T13:33:14.650Z,1009.42
2023-03-05T13:34:14.929Z,1009.41
2023-03-05T13:35:15.253Z,1009.41
2023-03-05T13:36:15.482Z,1009.40
2023-03-05T13:37:15.957Z,1009.33
2023-03-05T13:38:16.149Z,1009.33
2023-03-05T13:39:16.814Z,1009.37
2023-03-05T13:40:16.921Z,1009.33
2023-03-05T13:41:16.990Z,1009.33
2023-03-05T13:42:17.222Z,1009.31
2023-03-05T13:43:17.975Z,1009.32
2023-03-05T13:44:17.875Z,1009.29
2023-03-05T13:45:18.058Z,1009.31
2023-03-05T13:46:18.330Z,1009.27
2023-03-05T13:47:18.987Z,1009.27
2023-03-05T13:48:28.593Z,1009.23
2023-03-05T13:49:20.286Z,1009.23
2023-03-05T13:50:19.765Z,1009.18
2023-03-05T13:51:20.055Z,1009.21
2023-03-05T13:52:20.573Z,1009.20
2023-03-05T13:53:20.383Z,1009.22
2023-03-05T13:54:20.632Z,1009.19
2023-03-05T13:55:20.890Z,1009.20
2023-03-05T13:56:21.125Z,1009.17
2023-03-05T13:57:21.385Z,1009.15
2023-03-05T13:58:21.619Z,1009.18
2023-03-05T13:59:21.850Z,1009.12
2023-03-05T14:00:22.061Z,1009.15
2023-03-05T14:01:22.439Z,1009.08
2023-03-05T14:02:23.687Z,1009.07
2023-03-05T14:03:23.039Z,1009.12
2023-03-05T14:04:23.301Z,1009.04
2023-03-05T14:05:23.573Z,1009.08
2023-03-05T14:06:23.870Z,1009.05
2023-03-05T14:07:25.155Z,1009.01
2023-03-05T14:08:24.675Z,1009.05
2023-03-05T14:09:24.643Z,1009.03
2023-03-05T14:10:25.337Z,1008.97
2023-03-05T14:11:25.387Z,1009.01
2023-03-05T14:12:25.562Z,1008.99
2023-03-05T14:13:25.835Z,1008.97
2023-03-05T14:14:26.214Z,1008.96
2023-03-05T14:15:26.369Z,1008.89
2023-03-05T14:16:27.682Z,1008.93
2023-03-05T14:17:28.016Z,1008.89
2023-03-05T14:18:27.498Z,1008.84
2023-03-05T14:19:27.705Z,1008.82
2023-03-05T14:20:28.081Z,1008.86
2023-03-05T14:21:28.233Z,1008.83
2023-03-05T14:22:28.640Z,1008.85
2023-03-05T14:23:28.765Z,1008.82
2023-03-05T14:24:29.105Z,1008.83
2023-03-05T14:25:29.404Z,1008.80
2023-03-05T14:26:29.861Z,1008.79
2023-03-05T14:27:29.996Z,1008.75
2023-03-05T14:28:30.271Z,1008.72
2023-03-05T14:29:30.638Z,1008.70
2023-03-05T14:30:30.780Z,1008.71
2023-03-05T14:31:31.031Z,1008.68
2023-03-05T14:32:31.325Z,1008.69
2023-03-05T14:33:31.556Z,1008.64
2023-03-05T14:34:31.792Z,1008.64
2023-03-05T14:35:32.144Z,1008.61
2023-03-05T14:36:32.383Z,1008.66
2023-03-05T14:37:32.772Z,1008.59
2023-03-05T14:38:32.978Z,1008.60
2023-03-05T14:39:33.235Z,1008.57
2023-03-05T14:40:33.539Z,1008.57
2023-03-05T14:41:34.005Z,1008.56
2023-03-05T14:42:35.500Z,1008.58
2023-03-05T14:43:34.538Z,1008.50
2023-03-05T14:44:34.761Z,1008.48
2023-03-05T14:45:35.100Z,1008.46
2023-03-05T14:46:35.323Z,1008.45
2023-03-05T14:47:35.718Z,1008.42
2023-03-05T14:48:35.976Z,1008.40
2023-03-05T14:49:36.222Z,1008.37
2023-03-05T14:50:36.486Z,1008.33
2023-03-05T14:51:36.739Z,1008.31
2023-03-05T14:52:36.990Z,1008.29
2023-03-05T14:53:37.270Z,1008.30
2023-03-05T14:54:37.524Z,1008.28
2023-03-05T14:55:37.771Z,1008.27
2023-03-05T14:56:38.006Z,1008.27
2023-03-05T14:57:38.290Z,1008.24
2023-03-05T14:58:38.554Z,1008.21
2023-03-05T14:59:38.786Z,1008.25
2023-03-05T15:00:39.213Z,1008.22
2023-03-05T15:01:39.446Z,1008.21
2023-03-05T15:02:39.749Z,1008.21
2023-03-05T15:03:40.097Z,1008.17
2023-03-05T15:04:40.314Z,1008.15
2023-03-05T15:05:40.546Z,1008.11
2023-03-05T15:06:40.868Z,1008.04
2023-03-05T15:07:41.129Z,1008.13
2023-03-05T15:08:41.423Z,1008.10
2023-03-05T15:09:41.691Z,1008.09
2023-03-05T15:10:41.989Z,1008.10
2023-03-05T15:11:43.253Z,1008.07
2023-03-05T15:12:42.670Z,1008.09
2023-03-05T15:13:43.061Z,1008.05
2023-03-05T15:14:43.253Z,1008.04
2023-03-05T15:15:43.443Z,1008.05
2023-03-05T15:16:43.660Z,1008.01
2023-03-05T15:17:43.923Z,1008.01
2023-03-05T15:18:44.132Z,1007.95
2023-03-05T15:19:45.443Z,1007.93
2023-03-05T15:20:44.876Z,1007.89
2023-03-05T15:21:45.024Z,1007.93
2023-03-05T15:22:45.881Z,1007.92
2023-03-05T15:23:45.575Z,1007.89
2023-03-05T15:24:45.803Z,1007.88
2023-03-05T15:25:46.292Z,1007.86
2023-03-05T15:26:46.623Z,1007.83
2023-03-05T15:27:46.934Z,1007.83
2023-03-05T15:28:47.432Z,1007.82
2023-03-05T15:29:47.207Z,1007.81
2023-03-05T15:30:47.653Z,1007.78
2023-03-05T15:31:47.744Z,1007.76
2023-03-05T15:32:48.162Z,1007.78
2023-03-05T15:33:48.413Z,1007.75
2023-03-05T15:34:48.651Z,1007.76
2023-03-05T15:35:48.935Z,1007.77
2023-03-05T15:36:49.246Z,1007.73
2023-03-05T15:37:49.516Z,1007.75
2023-03-05T15:38:49.796Z,1007.78
2023-03-05T15:39:50.031Z,1007.74
2023-03-05T15:40:50.461Z,1007.76
2023-03-05T15:41:50.520Z,1007.74
2023-03-05T15:42:50.811Z,1007.74
2023-03-05T15:43:51.098Z,1007.71
2023-03-05T15:44:51.706Z,1007.71
2023-03-05T15:46:01.647Z,1007.74
2023-03-05T15:46:51.943Z,1007.71
2023-03-05T15:47:52.291Z,1007.71
2023-03-05T15:48:52.567Z,1007.70
2023-03-05T15:49:53.258Z,1007.69
2023-03-05T15:50:53.071Z,1007.67
2023-03-05T15:51:53.330Z,1007.70
2023-03-05T15:52:53.550Z,1007.64
2023-03-05T15:53:53.779Z,1007.64
2023-03-05T15:54:54.149Z,1007.67
2023-03-05T15:55:54.428Z,1007.65
2023-03-05T15:56:54.700Z,1007.67
2023-03-05T15:57:54.938Z,1007.58
2023-03-05T15:58:59.237Z,1007.55
2023-03-05T15:59:55.454Z,1007.53
2023-03-05T16:00:55.788Z,1007.53
2023-03-05T16:01:56.099Z,1007.49
2023-03-05T16:02:56.482Z,1007.49
2023-03-05T16:03:56.541Z,1007.45
2023-03-05T16:04:56.834Z,1007.46
2023-03-05T16:05:57.175Z,1007.46
2023-03-05T16:06:57.404Z,1007.44
2023-03-05T16:07:57.735Z,1007.39
2023-03-05T16:08:58.038Z,1007.39
2023-03-05T16:09:58.233Z,1007.38
2023-03-05T16:10:58.564Z,1007.42
2023-03-05T16:11:58.756Z,1007.35
2023-03-05T16:12:59.112Z,1007.34
2023-03-05T16:13:59.660Z,1007.35
2023-03-05T16:14:59.753Z,1007.36
2023-03-05T16:16:00.256Z,1007.35
2023-03-05T16:17:00.333Z,1007.38
2023-03-05T16:18:01.003Z,1007.33
2023-03-05T16:19:01.086Z,1007.32
2023-03-05T16:20:01.353Z,1007.30
2023-03-05T16:21:01.625Z,1007.31
2023-03-05T16:22:01.846Z,1007.32
2023-03-05T16:23:02.167Z,1007.26
2023-03-05T16:24:02.385Z,1007.32
2023-03-05T16:25:02.742Z,1007.28
2023-03-05T16:26:03.046Z,1007.31
2023-03-05T16:27:03.412Z,1007.30
2023-03-05T16:28:03.666Z,1007.25
2023-03-05T16:29:03.890Z,1007.24
2023-03-05T16:30:04.247Z,1007.27
2023-03-05T16:31:04.486Z,1007.25
2023-03-05T16:32:04.779Z,1007.27
2023-03-05T16:33:05.015Z,1007.22
2023-03-05T16:34:05.406Z,1007.20
2023-03-05T16:35:05.805Z,1007.19
2023-03-05T16:36:05.805Z,1007.20
2023-03-05T16:37:06.049Z,1007.14
2023-03-05T16:38:06.285Z,1007.16
2023-03-05T16:39:06.544Z,1007.16
2023-03-05T16:40:06.731Z,1007.17
2023-03-05T16:41:08.728Z,1007.14
2023-03-05T16:42:07.296Z,1007.13
2023-03-05T16:43:07.534Z,1007.10
2023-03-05T16:44:07.735Z,1007.10
2023-03-05T16:45:08.143Z,1007.07
2023-03-05T16:46:08.393Z,1007.08
2023-03-05T16:47:08.688Z,1007.05
2023-03-05T16:48:08.946Z,1007.04
2023-03-05T16:49:09.175Z,1007.08
2023-03-05T16:50:09.410Z,1007.04
2023-03-05T16:51:09.727Z,1007.04
2023-03-05T16:52:18.624Z,1007.00
2023-03-05T16:53:11.319Z,1007.01
2023-03-05T16:54:10.597Z,1007.00
2023-03-05T16:55:10.979Z,1007.00
2023-03-05T16:56:11.171Z,1006.98
2023-03-05T16:57:11.598Z,1006.95
2023-03-05T16:58:11.824Z,1006.96
2023-03-05T16:59:12.316Z,1006.96
2023-03-05T17:00:12.366Z,1006.95
2023-03-05T17:01:12.900Z,1006.96
2023-03-05T17:02:13.003Z,1006.97
2023-03-05T17:03:13.351Z,1006.98
2023-03-05T17:04:13.629Z,1006.96
2023-03-05T17:05:13.886Z,1006.97
2023-03-05T17:06:14.195Z,1006.95
2023-03-05T17:07:14.311Z,1006.96
2023-03-05T17:08:14.794Z,1006.94
2023-03-05T17:09:14.997Z,1006.93
2023-03-05T17:10:15.179Z,1006.92
2023-03-05T17:11:15.719Z,1006.91
2023-03-05T17:12:15.835Z,1006.93
2023-03-05T17:13:16.326Z,1006.91
2023-03-05T17:14:16.322Z,1006.95
2023-03-05T17:15:16.579Z,1006.94
2023-03-05T17:16:16.922Z,1006.89
2023-03-05T17:17:17.091Z,1006.89
2023-03-05T17:18:17.510Z,1006.88
2023-03-05T17:19:17.745Z,1006.88
2023-03-05T17:20:17.926Z,1006.86
2023-03-05T17:21:18.330Z,1006.87
2023-03-05T17:22:18.714Z,1006.88
2023-03-05T17:23:18.808Z,1006.89
2023-03-05T17:24:20.167Z,1006.89
2023-03-05T17:25:19.585Z,1006.89
2023-03-05T17:26:19.810Z,1006.90
2023-03-05T17:27:19.947Z,1006.92
2023-03-05T17:28:20.315Z,1006.83
2023-03-05T17:29:20.507Z,1006.89
2023-03-05T17:30:20.860Z,1006.85
2023-03-05T17:31:21.248Z,1006.87
2023-03-05T17:32:21.529Z,1006.86
2023-03-05T17:33:21.825Z,1006.87
2023-03-05T17:34:33.187Z,1006.85
2023-03-05T17:35:23.435Z,1006.88
2023-03-05T17:36:22.696Z,1006.81
2023-03-05T17:37:23.000Z,1006.83
2023-03-05T17:38:23.424Z,1006.85
2023-03-05T17:39:23.662Z,1006.87
2023-03-05T17:40:23.848Z,1006.87
2023-03-05T17:41:24.198Z,1006.80
2023-03-05T17:42:24.576Z,1006.83
2023-03-05T17:43:24.827Z,1006.76
2023-03-05T17:44:25.077Z,1006.79
2023-03-05T17:45:25.378Z,1006.80
2023-03-05T17:46:25.643Z,1006.78
2023-03-05T17:47:25.854Z,1006.76
2023-03-05T17:48:26.202Z,1006.76
2023-03-05T17:49:26.419Z,1006.79
2023-03-05T17:50:26.757Z,1006.78
2023-03-05T17:51:27.004Z,1006.77
2023-03-05T17:52:27.275Z,1006.78
2023-03-05T17:53:27.472Z,1006.79
2023-03-05T17:54:27.864Z,1006.74
2023-03-05T17:55:28.037Z,1006.71
2023-03-05T17:56:28.408Z,1006.77
2023-03-05T17:57:28.664Z,1006.78
2023-03-05T17:58:28.859Z,1006.76
2023-03-05T17:59:29.177Z,1006.80
2023-03-05T18:00:29.530Z,1006.78
2023-03-05T18:01:29.877Z,1006.77
2023-03-05T18:02:30.047Z,1006.83
2023-03-05T18:03:30.329Z,1006.77
2023-03-05T18:04:30.636Z,1006.80
2023-03-05T18:05:30.827Z,1006.81
2023-03-05T18:06:31.214Z,1006.83
2023-03-05T18:07:31.489Z,1006.79
2023-03-05T18:08:31.763Z,1006.79
2023-03-05T18:09:31.977Z,1006.74
2023-03-05T18:10:32.364Z,1006.79
2023-03-05T18:11:36.754Z,1006.77
2023-03-05T18:12:32.975Z,1006.73
2023-03-05T18:13:33.235Z,1006.75
2023-03-05T18:14:33.508Z,1006.73
2023-03-05T18:15:33.709Z,1006.72
2023-03-05T18:16:34.117Z,1006.75
2023-03-05T18:17:34.356Z,1006.73
2023-03-05T18:18:34.638Z,1006.69
2023-03-05T18:19:34.835Z,1006.70
2023-03-05T18:20:35.148Z,1006.77
2023-03-05T18:21:35.515Z,1006.74
2023-03-05T18:22:35.795Z,1006.78
2023-03-05T18:23:36.037Z,1006.76
2023-03-05T18:24:36.326Z,1006.79
2023-03-05T18:25:36.714Z,1006.71
2023-03-05T18:26:36.896Z,1006.74
2023-03-05T18:27:37.126Z,1006.70
2023-03-05T18:28:37.498Z,1006.70
2023-03-05T18:29:37.713Z,1006.68
2023-03-05T18:30:38.295Z,1006.67
2023-03-05T18:31:38.328Z,1006.66
2023-03-05T18:32:38.690Z,1006.67
2023-03-05T18:33:38.963Z,1006.65
2023-03-05T18:34:39.286Z,1006.63
2023-03-05T18:35:39.514Z,1006.64
2023-03-05T18:36:39.710Z,1006.63
2023-03-05T18:37:40.079Z,1006.61
2023-03-05T18:38:40.353Z,1006.60
2023-03-05T18:39:40.640Z,1006.58
2023-03-05T18:40:41.014Z,1006.57
2023-03-05T18:41:41.076Z,1006.57
2023-03-05T18:42:41.436Z,1006.50
2023-03-05T18:43:41.668Z,1006.51
2023-03-05T18:44:41.935Z,1006.51
2023-03-05T18:45:42.305Z,1006.49
2023-03-05T18:46:42.484Z,1006.50
2023-03-05T18:47:42.844Z,1006.50
2023-03-05T18:48:43.123Z,1006.47
2023-03-05T18:49:43.352Z,1006.45
2023-03-05T18:50:43.604Z,1006.45
2023-03-05T18:51:43.839Z,1006.45
2023-03-05T18:52:44.165Z,1006.42
2023-03-05T18:53:44.572Z,1006.41
2023-03-05T18:54:44.789Z,1006.39
2023-03-05T18:55:45.358Z,1006.37
2023-03-05T18:56:45.405Z,1006.39
2023-03-05T18:57:45.737Z,1006.40
2023-03-05T18:58:46.068Z,1006.39
2023-03-05T18:59:46.387Z,1006.37
2023-03-05T19:00:46.756Z,1006.38
2023-03-05T19:01:47.004Z,1006.40
2023-03-05T19:02:47.270Z,1006.36
2023-03-05T19:03:47.607Z,1006.37
2023-03-05T19:04:47.975Z,1006.39
2023-03-05T19:05:48.177Z,1006.36
2023-03-05T19:06:48.500Z,1006.39
2023-03-05T19:07:48.793Z,1006.34
2023-03-05T19:08:49.182Z,1006.36
2023-03-05T19:09:49.501Z,1006.35
2023-03-05T19:10:49.857Z,1006.35
2023-03-05T19:11:50.149Z,1006.34
2023-03-05T19:12:50.518Z,1006.37
2023-03-05T19:13:50.847Z,1006.33
2023-03-05T19:14:51.093Z,1006.36
2023-03-05T19:15:51.397Z,1006.33
2023-03-05T19:16:51.576Z,1006.31
2023-03-05T19:17:51.887Z,1006.33
2023-03-05T19:18:52.243Z,1006.29
2023-03-05T19:19:52.587Z,1006.31
2023-03-05T19:20:52.975Z,1006.30
2023-03-05T19:21:53.202Z,1006.32
2023-03-05T19:22:53.419Z,1006.28
2023-03-05T19:23:53.772Z,1006.30
2023-03-05T19:24:54.022Z,1006.23
2023-03-05T19:25:54.204Z,1006.27
2023-03-05T19:26:54.615Z,1006.23
2023-03-05T19:27:54.825Z,1006.27
2023-03-05T19:28:55.195Z,1006.26
2023-03-05T19:30:03.094Z,1006.27
2023-03-05T19:30:55.715Z,1006.26
2023-03-05T19:31:55.905Z,1006.24
2023-03-05T19:32:56.246Z,1006.23
2023-03-05T19:33:56.704Z,1006.20
2023-03-05T19:34:56.857Z,1006.20
2023-03-05T19:35:57.353Z,1006.22
2023-03-05T19:36:57.891Z,1006.23
2023-03-05T19:38:05.359Z,1006.24
2023-03-05T19:38:58.140Z,1006.24
2023-03-05T19:39:58.400Z,1006.23
2023-03-05T19:40:58.617Z,1006.21
2023-03-05T19:41:58.947Z,1006.20